Latest Weather Observations for Adelaide Airport

IDS60801

Issued at 3:01 pm CST Tuesday 26 May 2015 (issued every 30 minutes, with the page automatically refreshed every 10 minutes)

About weather observations | Map of weather stations | Latest weather observations for SA | Other Formats
Station Details ID: 023034 Name: ADELAIDE AIRPORT Lat: -34.95 Lon: 138.52 Height: 2.0 m
Data from the previous 72 hours. | See also: Recent months at Adelaide Airport
Date/Time
CST
Temp
°C
App
Temp
°C
Dew
Point
Rel
Hum
%
Delta-T
°C
Wind Press
QNH
hPa
Press
MSL
hPa
Rain
since 9 am
mm
Dir
 
Spd
km/h
Gust
km/h
Spd
kts
Gust
kts
26/02:30pm 19.8 16.8 7.9 46 6.1 NNW 13 19 7 10 1021.2 1021.2 0.0
26/02:00pm 19.7 17.2 8.0 46 6.0 NNW 11 15 6 8 1021.5 1021.5 0.0
26/01:30pm 19.5 16.7 8.7 49 5.6 N 13 17 7 9 1022.1 1022.1 0.0
26/01:00pm 19.2 16.5 8.8 51 5.4 N 13 19 7 10 1022.6 1022.6 0.0
26/12:30pm 19.3 15.7 8.5 49 5.6 N 17 20 9 11 1023.1 1023.1 0.0
26/12:00pm 19.6 16.0 8.4 48 5.8 N 17 20 9 11 1023.5 1023.5 0.0
26/11:00am 18.9 16.0 8.2 50 5.5 NNE 13 19 7 10 1024.5 1024.5 0.0
26/10:30am 17.8 14.5 7.9 52 5.0 N 15 19 8 10 1024.8 1024.8 0.0
26/10:00am 17.6 13.9 7.9 53 4.9 N 17 19 9 10 1025.1 1025.1 0.0
26/09:30am 18.0 14.2 7.7 51 5.2 NNE 17 20 9 11 1025.1 1025.1 0.0
26/09:00am 17.0 13.9 8.8 58 4.2 NNE 15 19 8 10 1025.3 1025.3 0.0
26/08:00am 14.2 11.8 8.6 69 2.8 NNE 11 15 6 8 1025.2 1025.2 0.0
26/07:30am 13.8 11.7 8.4 70 2.7 NE 9 11 5 6 1025.0 1025.0 0.0
26/07:00am 13.8 12.1 8.4 70 2.7 ESE 7 7 4 4 1025.0 1025.0 0.0
26/05:30am 13.6 13.0 9.0 74 2.3 NW 2 9 1 5 1025.1 1025.1 0.0
26/05:00am 13.7 12.1 8.9 73 2.4 NNE 7 9 4 5 1025.3 1025.3 0.0
26/04:30am 14.1 11.8 8.9 71 2.6 NNE 11 13 6 7 1025.2 1025.2 0.0
26/04:00am 14.4 12.0 8.6 68 2.9 NNE 11 13 6 7 1025.1 1025.1 0.0
26/03:30am 15.1 11.9 8.3 64 3.4 NE 15 19 8 10 1025.0 1025.0 0.0
26/03:00am 14.3 11.2 9.0 70 2.7 ENE 15 19 8 10 1025.1 1025.1 0.0
26/02:30am 14.4 12.2 9.3 71 2.6 NE 11 13 6 7 1025.6 1025.6 0.0
26/02:00am 14.7 12.1 9.4 70 2.7 NE 13 15 7 8 1025.9 1025.9 0.0
26/01:30am 14.5 12.6 9.2 70 2.7 NE 9 11 5 6 1026.2 1026.2 0.0
26/12:30am 15.4 12.6 8.7 64 3.4 NE 13 15 7 8 1025.8 1025.8 0.0
 
Date/Time
CST
Temp
°C
App
Temp
°C
Dew
Point
Rel
Hum
%
Delta-T
°C
Wind Press
QNH
hPa
Press
MSL
hPa
Rain
since 9 am
mm
Dir
 
Spd
km/h
Gust
km/h
Spd
kts
Gust
kts
25/11:30pm 14.4 11.6 8.6 68 2.9 NE 13 17 7 9 1026.2 1026.2 0.0
25/11:00pm 14.8 12.1 8.9 68 3.0 NE 13 17 7 9 1026.9 1026.9 0.0
25/10:30pm 14.5 12.2 9.0 69 2.8 NNE 11 13 6 7 1027.0 1027.0 0.0
25/10:00pm 14.6 12.5 8.4 66 3.1 ENE 9 13 5 7 1026.9 1026.9 0.0
25/09:30pm 13.2 10.9 9.0 75 2.1 ENE 11 13 6 7 1026.9 1026.9 0.0
25/09:00pm 13.8 11.0 8.6 71 2.6 NE 13 17 7 9 1027.1 1027.1 0.0
25/08:30pm 12.5 12.5 9.9 84 1.3 CALM 0 0 0 0 1027.2 1027.2 0.0
25/08:00pm 12.4 11.1 9.8 84 1.3 NE 7 9 4 5 1026.9 1026.9 0.0
25/07:30pm 13.0 11.5 10.5 85 1.3 NE 9 11 5 6 1026.9 1026.9 0.0
25/07:00pm 13.5 12.5 10.4 81 1.6 E 6 9 3 5 1026.9 1026.9 0.0
25/06:30pm 14.4 13.1 11.2 81 1.7 SW 9 11 5 6 1026.7 1026.7 0.0
25/05:30pm 14.8 12.7 9.7 71 2.6 SW 11 13 6 7 1026.5 1026.5 0.0
25/05:00pm 15.1 12.6 9.7 70 2.8 WSW 13 15 7 8 1026.3 1026.3 0.0
25/04:30pm 15.6 13.3 9.1 65 3.3 SW 11 15 6 8 1025.9 1025.9 0.0
25/04:00pm 16.1 14.0 9.7 66 3.3 SW 11 13 6 7 1025.7 1025.7 0.0
25/03:30pm 16.9 14.4 8.4 57 4.3 SW 11 13 6 7 1025.8 1025.8 0.0
25/03:00pm 17.3 14.6 8.9 57 4.3 WSW 13 15 7 8 1025.9 1025.9 0.0
25/02:30pm 17.5 14.7 8.7 56 4.5 WSW 13 15 7 8 1025.8 1025.8 0.0
25/02:00pm 17.4 14.8 9.3 59 4.2 WSW 13 17 7 9 1026.1 1026.1 0.0
25/01:30pm 17.7 15.0 9.0 56 4.5 W 13 17 7 9 1026.2 1026.2 0.0
25/01:00pm 18.1 15.0 8.8 54 4.8 W 15 19 8 10 1026.3 1026.3 0.0
25/12:30pm 17.5 15.0 8.3 54 4.7 NNW 11 15 6 8 1026.5 1026.5 0.0
25/12:00pm 19.0 15.8 7.0 45 6.0 N 13 19 7 10 1027.1 1027.1 0.0
25/11:30am 18.1 15.4 7.3 49 5.4 N 11 15 6 8 1027.9 1027.9 0.0
25/11:00am 17.8 14.5 6.6 48 5.6 N 13 19 7 10 1028.5 1028.5 0.0
25/10:30am 17.4 14.4 7.6 52 4.9 NNE 13 19 7 10 1028.7 1028.7 0.0
25/10:00am 16.7 14.5 7.7 55 4.5 NNE 9 15 5 8 1029.0 1029.0 0.0
25/09:30am 16.1 14.2 7.6 57 4.2 ENE 7 11 4 6 1029.3 1029.3 0.0
25/09:00am 14.7 12.7 8.7 67 3.0 ENE 9 9 5 5 1029.2 1029.2 0.0
25/08:30am 12.1 10.4 8.4 78 1.8 E 7 9 4 5 1029.2 1029.2 0.0
25/08:00am 9.9 7.5 6.9 81 1.4 NE 9 11 5 6 1029.1 1029.1 0.0
25/07:30am 9.6 6.8 7.0 84 1.2 NE 11 13 6 7 1028.9 1028.9 0.0
25/07:00am 9.5 8.8 7.1 85 1.1 CALM 0 0 0 0 1028.7 1028.7 0.0
25/06:30am 9.4 8.8 7.5 88 0.9 CALM 0 0 0 0 1028.4 1028.4 0.0
25/06:00am 9.6 9.0 7.3 85 1.1 CALM 0 0 0 0 1028.2 1028.2 0.0
25/05:30am 10.2 9.6 7.2 82 1.4 CALM 0 0 0 0 1028.0 1028.0 0.0
25/05:00am 11.3 9.7 7.8 79 1.7 ENE 6 7 3 4 1027.9 1027.9 0.0
25/04:30am 12.0 9.8 7.9 76 2.0 NNE 9 9 5 5 1027.9 1027.9 0.0
25/04:00am 11.9 9.7 7.8 76 2.0 NE 9 9 5 5 1027.7 1027.7 0.0
25/03:30am 11.0 9.5 8.3 83 1.3 ENE 6 7 3 4 1027.8 1027.8 0.0
25/03:00am 10.8 9.1 8.5 86 1.1 ENE 7 9 4 5 1028.3 1028.3 0.0
25/02:30am 11.1 9.4 8.2 82 1.4 E 7 9 4 5 1028.5 1028.5 0.0
25/02:00am 10.9 10.6 8.7 86 1.1 CALM 0 0 0 0 1028.9 1028.9 0.0
25/01:30am 11.1 10.7 8.4 83 1.3 CALM 0 0 0 0 1028.5 1028.5 0.0
25/01:00am 11.3 10.5 8.2 81 1.5 E 2 7 1 4 1028.4 1028.4 0.0
25/12:30am 11.4 9.6 8.1 80 1.6 ESE 7 9 4 5 1028.3 1028.3 0.0
25/12:00am 11.3 9.6 8.2 81 1.5 E 7 9 4 5 1028.6 1028.6 0.0
 
Date/Time
CST
Temp
°C
App
Temp
°C
Dew
Point
Rel
Hum
%
Delta-T
°C
Wind Press
QNH
hPa
Press
MSL
hPa
Rain
since 9 am
mm
Dir
 
Spd
km/h
Gust
km/h
Spd
kts
Gust
kts
24/11:30pm 11.4 10.6 8.1 80 1.6 E 2 6 1 3 1028.5 1028.5 0.0
24/11:00pm 12.5 12.0 7.8 73 2.3 CALM 0 0 0 0 1028.3 1028.3 0.0
24/10:30pm 12.4 10.6 8.1 75 2.1 NE 7 9 4 5 1028.5 1028.5 0.0
24/10:00pm 12.4 10.5 7.6 72 2.3 E 7 9 4 5 1028.3 1028.3 0.0
24/09:30pm 12.1 9.9 8.0 76 2.0 NE 9 11 5 6 1028.6 1028.6 0.0
24/09:00pm 13.2 10.5 7.4 68 2.8 N 11 13 6 7 1028.4 1028.4 0.0
24/08:30pm 12.6 10.9 7.4 70 2.5 S 6 11 3 6 1027.7 1027.7 0.0
24/08:00pm 12.7 10.0 7.5 70 2.5 ESE 11 13 6 7 1027.8 1027.8 0.0
24/07:30pm 12.6 10.5 8.3 75 2.1 E 9 11 5 6 1028.4 1028.4 0.0
24/07:00pm 13.3 11.5 7.8 69 2.7 NE 7 9 4 5 1028.9 1028.9 0.0
24/06:30pm 13.7 12.1 8.0 68 2.8 ENE 6 7 3 4 1028.7 1028.7 0.0
24/06:00pm 13.4 11.3 8.1 70 2.6 NE 9 11 5 6 1028.3 1028.3 0.0
24/05:30pm 14.0 12.1 7.7 66 3.1 NE 7 9 4 5 1027.9 1027.9 0.0
24/05:00pm 14.3 12.5 8.0 66 3.1 ENE 7 9 4 5 1027.9 1027.9 0.0
24/04:30pm 14.9 12.4 8.1 64 3.4 NNE 11 15 6 8 1028.1 1028.1 0.0
24/04:00pm 15.2 12.7 8.2 63 3.5 NE 11 15 6 8 1027.8 1027.8 0.0
24/03:30pm 15.6 12.5 7.3 57 4.1 NNE 13 15 7 8 1027.7 1027.7 0.0
24/03:00pm 15.8 12.9 8.0 60 3.9 N 13 17 7 9 1027.7 1027.7 0.0
24/02:30pm 16.3 12.7 6.7 53 4.7 N 15 17 8 9 1027.5 1027.5 0.0
24/02:00pm 16.7 13.8 6.7 51 4.9 N 11 13 6 7 1027.5 1027.5 0.0
24/01:30pm 16.6 13.5 5.5 48 5.3 N 11 13 6 7 1027.7 1027.7 0.0
24/01:00pm 16.8 13.5 6.3 50 5.1 N 13 19 7 10 1028.0 1028.0 0.0
24/12:30pm 15.8 11.7 6.3 53 4.6 N 17 22 9 12 1028.4 1028.4 0.0
24/12:00pm 15.6 11.7 5.5 51 4.8 N 15 22 8 12 1028.6 1028.6 0.0
24/11:30am 15.6 11.4 5.7 51 4.7 NNE 17 24 9 13 1028.8 1028.8 0.0
24/11:00am 14.5 11.6 6.6 59 3.8 N 11 15 6 8 1029.1 1029.1 0.0
24/10:30am 13.4 10.7 7.2 66 3.0 N 11 15 6 8 1029.1 1029.1 0.0
24/10:00am 13.2 9.9 6.5 64 3.2 NNE 13 17 7 9 1029.0 1029.0 0.0
24/09:30am 13.4 9.8 6.7 64 3.2 NNE 15 17 8 9 1029.2 1029.2 0.0
24/09:00am 12.9 9.3 6.6 65 3.0 NNE 15 17 8 9 1029.1 1029.1 0.0
24/08:30am 10.8 8.3 6.5 75 2.0 N 9 13 5 7 1028.9 1028.9 0.0
24/08:00am 9.3 6.5 5.3 76 1.8 NNE 9 13 5 7 1028.7 1028.7 0.0
24/07:30am 7.8 4.9 4.8 81 1.3 NE 9 11 5 6 1028.4 1028.4 0.0
24/07:00am 7.3 4.4 4.5 82 1.2 NE 9 11 5 6 1028.4 1028.4 0.0
24/06:30am 7.4 4.9 4.9 84 1.1 ENE 7 9 4 5 1028.3 1028.3 0.0
24/06:00am 6.7 2.9 4.1 83 1.1 NE 13 13 7 7 1028.0 1028.0 0.0
24/05:30am 8.6 5.0 5.2 79 1.5 NE 13 13 7 7 1027.9 1027.9 0.0
24/05:00am 6.6 3.3 4.3 85 1.0 NNE 11 13 6 7 1027.8 1027.8 0.0
24/04:30am 6.1 2.4 4.5 89 0.7 NE 13 15 7 8 1027.6 1027.6 0.0
24/04:00am 5.9 3.0 4.7 92 0.5 NE 9 13 5 7 1027.5 1027.5 0.0
24/03:30am 5.9 3.1 5.0 94 0.4 ENE 9 9 5 5 1027.7 1027.7 0.0
24/03:00am 6.7 5.1 4.6 86 0.9 NE 2 6 1 3 1027.9 1027.9 0.0
24/02:30am 6.3 3.5 5.1 92 0.5 NE 9 11 5 6 1027.9 1027.9 0.0
24/02:00am 6.3 3.5 5.1 92 0.5 NE 9 9 5 5 1028.0 1028.0 0.0
24/01:30am 7.5 4.8 5.7 88 0.8 NE 9 11 5 6 1028.1 1028.1 0.0
24/01:00am 7.5 5.2 5.7 88 0.8 ENE 7 9 4 5 1028.2 1028.2 0.0
24/12:30am 7.2 4.5 5.6 89 0.7 E 9 11 5 6 1028.4 1028.4 0.0
24/12:00am 8.1 5.5 5.9 86 1.0 ENE 9 11 5 6 1028.5 1028.5 0.0
 
Date/Time
CST
Temp
°C
App
Temp
°C
Dew
Point
Rel
Hum
%
Delta-T
°C
Wind Press
QNH
hPa
Press
MSL
hPa
Rain
since 9 am
mm
Dir
 
Spd
km/h
Gust
km/h
Spd
kts
Gust
kts
23/11:30pm 9.5 6.7 6.9 84 1.2 NNE 11 13 6 7 1028.6 1028.6 0.0
23/11:00pm 10.1 6.5 6.9 80 1.5 NE 15 17 8 9 1028.5 1028.5 0.0
23/10:30pm 10.7 7.6 7.1 78 1.7 NNE 13 17 7 9 1028.7 1028.7 0.0
23/10:00pm 10.7 8.1 7.6 81 1.5 NNE 11 15 6 8 1028.9 1028.9 0.0
23/09:30pm 11.7 10.1 8.0 78 1.8 NNE 6 7 3 4 1029.2 1029.2 0.0
23/09:00pm 11.1 9.4 8.2 82 1.4 NW 7 9 4 5 1028.9 1028.9 0.0
23/08:30pm 10.1 9.3 8.0 87 1.0 ENE 2 7 1 4 1028.7 1028.7 0.0
23/08:00pm 9.9 8.0 7.4 84 1.2 NE 7 9 4 5 1028.8 1028.8 0.0
23/07:30pm 10.4 9.1 7.7 83 1.3 ENE 4 6 2 3 1028.9 1028.9 0.0
23/07:00pm 10.6 8.8 8.1 84 1.2 ESE 7 7 4 4 1028.7 1028.7 0.0
23/06:30pm 11.1 9.5 8.2 82 1.4 ESE 6 6 3 3 1028.7 1028.7 0.0
23/06:00pm 11.7 10.1 8.2 79 1.7 E 6 7 3 4 1028.7 1028.7 0.0
23/05:30pm 12.1 10.0 8.2 77 1.9 S 9 9 5 5 1028.8 1028.8 0.0
23/05:00pm 12.8 11.1 8.3 74 2.2 SW 7 9 4 5 1028.9 1028.9 0.0
23/04:30pm 13.9 11.7 8.0 67 2.9 WSW 9 11 5 6 1028.8 1028.8 0.0
23/04:00pm 14.5 12.2 7.3 62 3.5 WSW 9 11 5 6 1028.9 1028.9 0.0
23/03:30pm 14.8 12.1 7.2 60 3.7 SW 11 11 6 6 1029.0 1029.0 0.0

Other Formats:

Comma delimited format used in spreadsheet applications
http://www.bom.gov.au/fwo/IDS60801/IDS60801.94672.axf

JavaScript Object Notation format (JSON) in row-major order
http://www.bom.gov.au/fwo/IDS60801/IDS60801.94672.json